Murtala Muhammed International Airport

DNMM · Lagos, Nigeria

Storia di METAR DNMM · Murtala Muhammed International Airport

Di seguito sono riportati i METAR degli ultimi giorni. Seleziona un anno per sfogliare i METAR più vecchi, dall'anno 2007 in poi.

9 dicembre 2022

Tempo Codice Tempo metereologico Temp. Vista Base nuvolosa Vento METAR/SPECI
15:00
M
33 °C 7 km - 130° 130° 6 kt METAR DNMM 091400Z 13006KT 7000 SCT015 33/24 Q1010 NOSIG
14:00
M
33 °C 7 km 1.500 ft 070° 070° 3 kt METAR DNMM 091300Z 07003KT 7000 BKN015 33/25 Q1011 NOSIG
13:00
M
32 °C 7 km 1.400 ft 070° 070° 4 kt METAR DNMM 091200Z 07004KT 7000 BKN014 32/25 Q1012 NOSIG
12:00
M
30 °C 7 km 1.300 ft 350° 350° 4 kt METAR DNMM 091100Z 35004KT 7000 BKN013 30/26 Q1013 NOSIG
11:00
M
29 °C 7 km 1.300 ft 330° 330° 6 kt METAR DNMM 091000Z 33006KT 7000 BKN013 29/25 Q1014 NOSIG
10:00
M
27 °C 5 km - 320° 320° 7 kt METAR DNMM 090900Z 32007KT 5000 HZ SCT011 27/25 Q1014 BECMG 7000 NSW
09:00
I
26 °C 3 km - 010° 010° 6 kt METAR DNMM 090800Z 01006KT 3000 BR SCT010 26/25 Q1014 TEMPO 5000 HZ
07:00
I
24 °C 2 km - Var Var 2 kt METAR DNMM 090600Z VRB02KT 2000 BR SCT008 24/24 Q1012 TEMPO 1500 BR
06:00
M
25 °C 6 km - Var Var 2 kt METAR DNMM 090500Z VRB02KT 6000 FEW009 25/24 Q1012 NOSIG
05:00
M
25 °C 7 km - Var Var 2 kt METAR DNMM 090400Z VRB02KT 7000 FEW009 25/24 Q1011 NOSIG
04:00
V
25 °C 10 km+ - Var Var 2 kt METAR DNMM 090300Z VRB02KT 9999 FEW009 25/25 Q1011 TEMPO 5000 BR
03:00
V
25 °C 10 km+ - Var Var 2 kt METAR DNMM 090200Z VRB02KT 9999 FEW010 25/25 Q1012 NOSIG
02:00
V
26 °C 10 km+ - Var Var 2 kt METAR DNMM 090100Z VRB02KT 9999 FEW010 26/25 Q1012 NOSIG
01:00
V
26 °C 10 km+ - Var Var 2 kt METAR DNMM 090000Z VRB02KT 9999 FEW010 26/25 Q1013 NOSIG
00:00
V
26 °C 10 km+ - Var Var 2 kt METAR DNMM 082300Z VRB02KT 9999 FEW010 26/25 Q1013 NOSIG

8 dicembre 2022

Tempo Codice Tempo metereologico Temp. Vista Base nuvolosa Vento METAR/SPECI
23:00
V
27 °C 10 km+ - Var Var 2 kt METAR DNMM 082200Z VRB02KT 9999 FEW011 27/26 Q1013 NOSIG
22:00
V
27 °C 10 km+ - 190° 190° 3 kt METAR DNMM 082100Z 19003KT 9999 FEW011 27/26 Q1013 NOSIG
21:00
V
27 °C 10 km+ - 180° 180° 3 kt METAR DNMM 082000Z 18003KT 9999 FEW011 27/25 Q1012 NOSIG
20:00
V
28 °C 10 km+ - 170° 170° 5 kt METAR DNMM 081900Z 17005KT 9999 FEW012 28/25 Q1011 NOSIG
19:00
V
28 °C 10 km+ - 170° 170° 5 kt METAR DNMM 081800Z 17005KT 9999 FEW012 FEW020CB 28/25 Q1011 NOSIG
18:00
V
30 °C 10 km+ - 180° 180° 5 kt METAR DNMM 081700Z 18005KT 9999 FEW013 FEW020CB 30/25 Q1010 NOSIG
17:00
V
31 °C 10 km+ - 200° 200° 7 kt METAR DNMM 081600Z 20007KT 9999 SCT014 FEW020CB 31/25 Q1009 NOSIG
16:00
M
29 °C 10 km+ 1.300 ft 270° 270° 9 kt METAR DNMM 081500Z 27009KT 9999 TS BKN013 FEW020CB 29/25 Q1010 TEMPO 5000 -TSRA
15:00
M
30 °C 8 km 1.300 ft 210° 210° 7 kt METAR DNMM 081400Z 21007KT 8000 TS BKN013 FEW020CB 30/24 Q1009 TEMPO 5000 -TSRA
14:00
M
33 °C 7 km 1.500 ft 150° 150° 7 kt METAR DNMM 081300Z 15007KT 7000 BKN015 FEW020CB 33/25 Q1010 NOSIG
13:00
M
32 °C 7 km 1.400 ft 030° 030° 3 kt METAR DNMM 081200Z 03003KT 7000 BKN014 FEW020CB 32/26 Q1011 TEMPO TS
12:00
M
30 °C 8 km 1.300 ft 230° 230° 3 kt METAR DNMM 081100Z 23003KT 8000 BKN013 FEW020CB 30/25 Q1012 TEMPO TS
11:00
M
30 °C 8 km 1.300 ft 100° 100° 4 kt METAR DNMM 081000Z 10004KT 8000 BKN013 FEW020CB 30/25 Q1013 NOSIG
10:00
V
29 °C 8 km - 190° 190° 4 kt METAR DNMM 080900Z 19004KT 8000 SCT013 29/26 Q1013 NOSIG
09:00
M
27 °C 5 km - Var Var 2 kt METAR DNMM 080800Z VRB02KT 5000 HZ FEW011 27/26 Q1013 BECMG 7000 NSW
08:00
I
26 °C 1,5 km - Var Var 2 kt METAR DNMM 080700Z VRB02KT 1500 HZ FEW009 26/25 Q1012 TEMPO 3000 HZ
03:00
M
26 °C 7 km - Var Var 2 kt METAR DNMM 080200Z VRB02KT 7000 FEW011 26/25 Q1010 NOSIG
02:00
M
27 °C 7 km - Var Var 2 kt METAR DNMM 080100Z VRB02KT 7000 FEW011 27/25 Q1011 NOSIG
01:00
V
27 °C 8 km - Var Var 2 kt METAR DNMM 080000Z VRB02KT 8000 FEW011 27/25 Q1011 NOSIG
00:00
V
27 °C 8 km - 170° 170° 3 kt METAR DNMM 072300Z 17003KT 8000 FEW011 27/26 Q1012 NOSIG

7 dicembre 2022

Tempo Codice Tempo metereologico Temp. Vista Base nuvolosa Vento METAR/SPECI
23:00
V
27 °C 8 km - 220° 220° 3 kt METAR DNMM 072200Z 22003KT 8000 FEW011 27/26 Q1012 NOSIG
22:00
V
27 °C 8 km - 210° 210° 3 kt METAR DNMM 072100Z 21003KT 8000 FEW011 27/26 Q1012 NOSIG
21:00
V
27 °C 8 km - 200° 200° 4 kt METAR DNMM 072000Z 20004KT 8000 FEW011 27/26 Q1012 NOSIG
20:00
V
28 °C 8 km - 230° 230° 3 kt METAR DNMM 071900Z 23003KT 8000 FEW012 28/26 Q1011 TEMPO TS FEW012 FEW020CB
19:00
V
28 °C 8 km - 100° 100° 4 kt METAR DNMM 071800Z 10004KT 8000 TS FEW012 FEW020CB 28/26 Q1010 NOSIG
18:00
V
29 °C 8 km - 180° 180° 5 kt METAR DNMM 071700Z 18005KT 8000 TS FEW013 FEW020CB 29/25 Q1009 NOSIG
17:00
V
30 °C 8 km - 220° 220° 3 kt METAR DNMM 071600Z 22003KT 8000 TS FEW013 FEW020CB 30/25 Q1009 TEMPO 5000 -TSRA
16:00
M
30 °C 8 km 1.300 ft 170° 170° 6 kt METAR DNMM 071500Z 17006KT 8000 BKN013 FEW020CB 30/25 Q1009 TEMPO 5000 -TSRA
15:00
M
32 °C 10 km+ 1.400 ft Var Var 2 kt METAR DNMM 071400Z VRB02KT 9999 BKN014 FEW020CB 32/25 Q1009 TEMPO TS
14:00
M
32 °C 10 km+ 1.400 ft 210° 210° 4 kt METAR DNMM 071300Z 21004KT 9999 BKN014 FEW020CB 32/25 Q1010 NOSIG
13:00
M
32 °C 10 km+ 1.400 ft 280° 280° 6 kt METAR DNMM 071200Z 28006KT 9999 BKN014 32/25 Q1011 NOSIG
12:00
M
31 °C 8 km 1.400 ft Var Var 2 kt METAR DNMM 071100Z VRB02KT 8000 BKN014 31/25 Q1012 NOSIG
11:00
M
30 °C 8 km 1.300 ft Var Var 2 kt METAR DNMM 071000Z VRB02KT 8000 BKN013 30/26 Q1013 NOSIG

Noi e le terze parti seguiamo il tuo comportamento su internet con i cookie. Se continui, riteniamo che tu sia d'accordo con la nostra Politica sui cookie.